Rienzi, Mississippi
Current Conditions -  °F | °C
As of 10:55 AM on Tuesday 27 Jan 2015 (Local Time) from KCRX Reporting Station
Clear Clear  
Wind Chill: 50°   Ceiling: Unl
Heat Index: 50°   Visibility: 10mi
Dew Point: 36°   Wind: 10mph
Humidity: 58%   Direction: 10°N
Pressure: 30.1"   Gusts: 18mph
Location:  34.77°N, 88.53°W
Report Text: KCRX 271655Z AUTO 01009G16KT 10SM CLR 10/02 A3010 RMK AO2
Loading
Personal Weather Stations






























Interactive Weather Map New forecast layout! Learn more

10-Day Weather Forecast

Advertisements
Track Severe Weather on mobile